createdAt,value
2024-01-24T00:04:23.796Z,99534.77
2024-01-24T00:09:28.279Z,99524.53
2024-01-24T00:14:34.123Z,99515.71
2024-01-24T00:19:39.781Z,99521.06
2024-01-24T00:24:45.402Z,99514.63
2024-01-24T00:29:51.316Z,99494.67
2024-01-24T00:34:57.127Z,99476.39
2024-01-24T00:40:04.057Z,99470.71
2024-01-24T00:45:10.920Z,99468.88
2024-01-24T00:50:16.665Z,99456.18
2024-01-24T00:55:22.303Z,99442.97
2024-01-24T01:00:28.080Z,99426.27
2024-01-24T01:05:33.744Z,99428.62
2024-01-24T01:10:39.410Z,99435.34
2024-01-24T01:15:45.551Z,99425.19
2024-01-24T01:20:51.183Z,99418.39
2024-01-24T01:25:57.119Z,99415.33
2024-01-24T01:31:02.800Z,99409.70
2024-01-24T01:36:17.738Z,99380.20
2024-01-24T01:41:28.751Z,99364.53
2024-01-24T01:46:34.944Z,99345.30
2024-01-24T01:51:41.280Z,99331.75
2024-01-24T01:56:47.045Z,99315.84
2024-01-24T02:01:54.699Z,99293.16
2024-01-24T02:07:02.262Z,99276.92
2024-01-24T02:12:08.627Z,99268.08
2024-01-24T02:17:14.266Z,99258.13
2024-01-24T02:22:20.083Z,99243.52
2024-01-24T02:27:25.705Z,99232.16
2024-01-24T02:32:31.404Z,99224.05
2024-01-24T02:37:37.055Z,99212.86
2024-01-24T02:42:42.684Z,99205.58
2024-01-24T02:47:48.385Z,99195.33
2024-01-24T02:52:54.073Z,99161.62
2024-01-24T02:57:59.747Z,99136.54
2024-01-24T03:03:05.610Z,99121.52
2024-01-24T03:08:13.099Z,99117.95
2024-01-24T03:13:19.623Z,99111.40
2024-01-24T03:18:25.436Z,99101.19
2024-01-24T03:23:31.633Z,99094.80
2024-01-24T03:28:37.501Z,99088.55
2024-01-24T03:33:43.689Z,99076.72
2024-01-24T03:38:48.220Z,99075.40
2024-01-24T03:43:53.846Z,99037.32
2024-01-24T03:48:59.816Z,99009.85
2024-01-24T03:54:06.097Z,98995.55
2024-01-24T03:59:11.736Z,98997.43
2024-01-24T04:04:17.697Z,98983.69
2024-01-24T04:09:23.543Z,98967.54
2024-01-24T04:14:29.232Z,98963.05
2024-01-24T04:19:35.027Z,98959.56
2024-01-24T04:24:40.837Z,98947.14
2024-01-24T05:09:25.152Z,98946.38
2024-01-24T05:14:30.754Z,98931.61
2024-01-24T05:19:36.820Z,98918.70
2024-01-24T05:24:44.989Z,98903.95
2024-01-24T05:29:50.700Z,98881.08
2024-01-24T05:34:56.540Z,98873.83
2024-01-24T05:40:02.388Z,98857.27
2024-01-24T05:45:09.587Z,98839.05
2024-01-24T05:50:15.937Z,98810.88
2024-01-24T05:55:21.816Z,98788.42
2024-01-24T06:00:27.637Z,98784.14
2024-01-24T06:05:34.363Z,98762.73
2024-01-24T06:10:38.578Z,98747.36
2024-01-24T06:15:44.344Z,98740.84
2024-01-24T06:20:50.104Z,98724.23
2024-01-24T06:25:56.084Z,98717.70
2024-01-24T06:31:02.849Z,98720.73
2024-01-24T06:36:07.314Z,98711.99
2024-01-24T06:41:14.149Z,98701.61
2024-01-24T06:46:19.763Z,98697.20
2024-01-24T06:51:25.550Z,98697.69
2024-01-24T06:56:31.944Z,98685.08
2024-01-24T07:01:37.648Z,98690.17
2024-01-24T07:06:44.197Z,98677.83
2024-01-24T07:11:50.507Z,98671.76
2024-01-24T07:16:56.143Z,98666.09
2024-01-24T07:22:04.057Z,98641.16
2024-01-24T07:27:10.704Z,98644.30
2024-01-24T07:32:16.639Z,98643.03
2024-01-24T07:37:22.262Z,98643.30
2024-01-24T07:42:28.001Z,98637.39
2024-01-24T07:47:33.840Z,98613.09
2024-01-24T07:52:42.456Z,98603.81
2024-01-24T07:57:49.815Z,98585.98
2024-01-24T08:02:55.674Z,98565.88
2024-01-24T08:08:02.866Z,98553.30
2024-01-24T08:13:11.761Z,98564.52
2024-01-24T08:18:18.115Z,98544.70
2024-01-24T08:23:31.719Z,98546.79
2024-01-24T08:28:45.076Z,98551.31
2024-01-24T08:33:52.531Z,98541.48
2024-01-24T08:38:58.591Z,98518.09
2024-01-24T08:44:05.966Z,98522.05
2024-01-24T08:49:14.026Z,98507.23
2024-01-24T08:54:21.178Z,98500.17
2024-01-24T08:59:27.118Z,98495.20
2024-01-24T09:04:33.494Z,98497.88
2024-01-24T09:09:42.151Z,98499.85
2024-01-24T09:14:49.218Z,98498.09
2024-01-24T09:19:55.129Z,98484.56
2024-01-24T09:25:02.271Z,98458.25
2024-01-24T09:30:11.586Z,98452.89
2024-01-24T09:35:17.756Z,98434.16
2024-01-24T09:40:23.999Z,98435.55
2024-01-24T09:45:32.831Z,98440.70
2024-01-24T09:50:39.881Z,98435.52
2024-01-24T09:55:47.098Z,98424.48
2024-01-24T10:00:53.799Z,98408.54
2024-01-24T10:06:00.442Z,98413.64
2024-01-24T10:11:06.460Z,98404.14
2024-01-24T10:16:12.081Z,98395.17
2024-01-24T10:21:18.547Z,98397.54
2024-01-24T10:26:22.889Z,98398.06
2024-01-24T10:31:28.937Z,98398.24
2024-01-24T10:36:37.853Z,98384.61
2024-01-24T10:41:50.495Z,98369.52
2024-01-24T10:46:57.552Z,98350.93
2024-01-24T10:52:04.004Z,98357.89
2024-01-24T10:57:13.891Z,98347.27
2024-01-24T11:02:19.943Z,98317.79
2024-01-24T11:07:31.533Z,98296.87
2024-01-24T11:12:37.317Z,98281.49
2024-01-24T11:17:46.533Z,98279.58
2024-01-24T11:22:52.306Z,98286.63
2024-01-24T11:28:01.081Z,98286.14
2024-01-24T11:33:07.885Z,98274.35
2024-01-24T11:38:37.137Z,98267.05
2024-01-24T11:43:46.373Z,98271.45
2024-01-24T11:48:52.288Z,98269.80
2024-01-24T11:54:04.746Z,98259.01
2024-01-24T11:59:10.404Z,98256.17
2024-01-24T12:04:16.559Z,98252.16
2024-01-24T12:09:24.445Z,98243.62
2024-01-24T12:14:30.414Z,98241.66
2024-01-24T12:19:37.920Z,98246.05
2024-01-24T12:24:44.701Z,98242.46
2024-01-24T12:29:54.907Z,98238.47
2024-01-24T12:35:04.160Z,98232.85
2024-01-24T12:40:13.756Z,98223.40
2024-01-24T12:45:19.705Z,98222.02
2024-01-24T12:50:26.576Z,98220.30
2024-01-24T12:55:32.538Z,98219.27
2024-01-24T13:00:38.449Z,98236.86
2024-01-24T13:05:47.391Z,98228.60
2024-01-24T13:10:57.313Z,98210.53
2024-01-24T13:16:04.433Z,98216.88
2024-01-24T13:21:10.034Z,98204.80
2024-01-24T13:26:15.733Z,98198.81
2024-01-24T13:31:21.568Z,98208.70
2024-01-24T13:36:27.443Z,98221.25
2024-01-24T13:41:33.382Z,98227.86
2024-01-24T13:46:39.297Z,98247.83
2024-01-24T13:51:45.997Z,98305.61
2024-01-24T13:56:51.852Z,98361.92
2024-01-24T14:02:00.665Z,98361.11
2024-01-24T14:07:08.172Z,98373.88
2024-01-24T14:12:13.917Z,98366.87
2024-01-24T14:17:19.583Z,98357.92
2024-01-24T14:22:26.300Z,98351.40
2024-01-24T14:27:32.039Z,98339.80
2024-01-24T14:32:39.617Z,98324.15
2024-01-24T14:37:45.864Z,98328.23
2024-01-24T14:42:51.746Z,98324.58
2024-01-24T14:47:57.741Z,98324.11
2024-01-24T14:53:03.405Z,98326.52
2024-01-24T14:58:09.342Z,98323.79
2024-01-24T15:03:15.142Z,98326.52
2024-01-24T15:08:23.326Z,98333.02
2024-01-24T15:13:30.292Z,98336.92
2024-01-24T15:18:36.459Z,98341.83
2024-01-24T15:23:42.201Z,98343.95
2024-01-24T15:28:47.910Z,98350.75
2024-01-24T15:33:54.222Z,98345.98
2024-01-24T15:38:58.790Z,98335.47
2024-01-24T15:44:04.749Z,98343.13
2024-01-24T15:49:10.536Z,98342.89
2024-01-24T15:54:16.259Z,98356.92
2024-01-24T15:59:22.484Z,98359.75
2024-01-24T16:04:28.650Z,98370.42
2024-01-24T16:09:34.841Z,98372.38
2024-01-24T16:14:41.505Z,98377.82
2024-01-24T16:19:48.147Z,98379.96
2024-01-24T16:24:52.711Z,98387.83
2024-01-24T16:29:59.126Z,98403.93
2024-01-24T16:35:06.364Z,98412.77
2024-01-24T16:40:14.293Z,98412.58
2024-01-24T16:45:20.226Z,98420.45
2024-01-24T16:50:25.920Z,98428.92
2024-01-24T16:55:32.382Z,98446.73
2024-01-24T17:00:36.506Z,98446.95
2024-01-24T17:05:42.652Z,98445.88
2024-01-24T17:10:48.606Z,98450.33
2024-01-24T17:15:55.004Z,98451.48
2024-01-24T17:21:00.929Z,98455.36
2024-01-24T17:26:06.714Z,98459.61
2024-01-24T17:31:14.401Z,98459.48
2024-01-24T17:36:20.029Z,98457.02
2024-01-24T17:41:26.989Z,98454.06
2024-01-24T17:46:33.013Z,98456.16
2024-01-24T17:51:39.181Z,98463.09
2024-01-24T17:56:44.868Z,98466.05
2024-01-24T18:01:52.796Z,98470.35
2024-01-24T18:06:58.829Z,98480.66
2024-01-24T18:12:04.722Z,98486.89
2024-01-24T18:17:10.327Z,98486.42
2024-01-24T18:22:16.691Z,98482.59
2024-01-24T18:27:21.123Z,98480.88
2024-01-24T18:32:26.770Z,98488.41
2024-01-24T18:37:32.985Z,98486.95
2024-01-24T18:42:40.907Z,98483.18
2024-01-24T18:47:48.641Z,98487.15
2024-01-24T18:52:54.537Z,98482.52
2024-01-24T18:58:00.631Z,98483.11
2024-01-24T19:03:07.706Z,98479.17
2024-01-24T19:08:14.565Z,98471.27
2024-01-24T19:13:24.899Z,98470.95
2024-01-24T19:18:31.108Z,98468.95
2024-01-24T19:23:36.884Z,98463.93
2024-01-24T19:28:42.993Z,98461.81
2024-01-24T19:33:52.038Z,98471.16
2024-01-24T19:38:59.762Z,98471.88
2024-01-24T19:44:05.866Z,98470.27
2024-01-24T19:49:13.650Z,98475.23
2024-01-24T19:54:21.165Z,98469.27
2024-01-24T19:59:27.140Z,98471.81
2024-01-24T20:04:36.687Z,98473.30
2024-01-24T20:09:45.156Z,98475.80
2024-01-24T20:14:51.112Z,98472.50
2024-01-24T20:19:56.785Z,98477.77
2024-01-24T20:25:02.479Z,98489.88
2024-01-24T20:30:09.636Z,98502.78
2024-01-24T20:35:15.945Z,98494.42
2024-01-24T20:40:21.815Z,98494.41
2024-01-24T20:45:28.014Z,98495.55
2024-01-24T20:50:33.875Z,98490.92
2024-01-24T20:55:39.517Z,98484.10
2024-01-24T21:00:45.288Z,98485.48
2024-01-24T21:05:51.916Z,98484.20
2024-01-24T21:11:03.657Z,98492.04
2024-01-24T21:16:11.020Z,98490.63
2024-01-24T21:21:15.110Z,98501.20
2024-01-24T21:26:20.792Z,98503.54
2024-01-24T21:31:32.591Z,98504.29
2024-01-24T21:36:47.615Z,98505.85
2024-01-24T21:41:55.405Z,98507.25
2024-01-24T21:47:05.521Z,98513.00
2024-01-24T21:52:11.794Z,98525.05
2024-01-24T21:57:17.424Z,98515.83
2024-01-24T22:02:23.112Z,98516.99
2024-01-24T22:07:29.010Z,98528.50
2024-01-24T22:12:34.958Z,98527.48
2024-01-24T22:17:42.251Z,98532.02
2024-01-24T22:22:48.066Z,98545.94
2024-01-24T22:27:53.916Z,98565.54
2024-01-24T22:32:59.862Z,98557.16
2024-01-24T22:38:05.648Z,98564.19
2024-01-24T22:43:11.751Z,98569.34
2024-01-24T22:48:18.894Z,98563.27
2024-01-24T22:53:24.888Z,98561.36
2024-01-24T22:58:30.833Z,98553.55
2024-01-24T23:03:36.656Z,98545.25
2024-01-24T23:08:42.810Z,98546.59
2024-01-24T23:13:48.706Z,98546.88
2024-01-24T23:18:55.661Z,98536.56
2024-01-24T23:24:02.360Z,98531.81
2024-01-24T23:29:06.692Z,98525.63
2024-01-24T23:34:13.554Z,98538.06
2024-01-24T23:39:19.288Z,98540.80
2024-01-24T23:44:25.101Z,98544.85
2024-01-24T23:49:31.043Z,98543.55
2024-01-24T23:54:36.851Z,98543.77
2024-01-24T23:59:42.627Z,98545.62
